Time;durP1;ratioP1;P1;durP2;ratioP2;P2;SDS_P1;SDS_P2;PMS_P1;PMS_P2;Temp;Humidity;BMP_temperature;BMP_pressure;BME280_temperature;BME280_humidity;BME280_pressure;Samples;Min_cycle;Max_cycle;Signal;HPM_P1;HPM_P2
2022/01/05 00:01:38;;;;;;;3.88;1.17;;;;;;;4.67;100.00;99089.66;8377309;28;20503;-62
2022/01/05 00:05:39;;;;;;;5.25;1.20;;;;;;;4.57;100.00;99086.13;8378522;28;20473;-62
2022/01/05 00:09:39;;;;;;;5.60;1.80;;;;;;;4.55;100.00;99090.78;8378297;28;20085;-62
2022/01/05 00:13:40;;;;;;;3.10;1.55;;;;;;;4.71;100.00;99102.63;8380790;28;20045;-62
2022/01/05 00:17:41;;;;;;;6.28;1.77;;;;;;;4.67;100.00;99097.69;8364101;28;20052;-62
2022/01/05 00:21:41;;;;;;;6.22;1.75;;;;;;;4.71;100.00;99107.13;8378027;28;20033;-62
2022/01/05 00:25:42;;;;;;;5.88;1.65;;;;;;;4.60;100.00;99116.13;8377550;28;20072;-62
2022/01/05 00:29:42;;;;;;;4.93;2.67;;;;;;;4.52;100.00;99113.31;8378191;28;20071;-63
2022/01/05 00:33:43;;;;;;;4.35;1.98;;;;;;;4.57;100.00;99131.63;8377048;28;20429;-63
2022/01/05 00:37:43;;;;;;;4.85;2.13;;;;;;;4.60;100.00;99120.66;8366599;28;20033;-62
2022/01/05 00:41:43;;;;;;;5.15;2.30;;;;;;;4.50;100.00;99123.28;8358984;28;20029;-62
2022/01/05 00:45:44;;;;;;;4.20;2.05;;;;;;;4.41;100.00;99131.28;8359313;28;20427;-62
2022/01/05 00:49:44;;;;;;;3.83;2.20;;;;;;;4.33;100.00;99136.47;8359487;28;20040;-62
2022/01/05 00:53:45;;;;;;;6.25;3.15;;;;;;;4.40;100.00;99142.97;8358143;28;20037;-62
2022/01/05 00:57:46;;;;;;;4.85;3.70;;;;;;;4.39;100.00;99135.94;8358801;28;20037;-62
2022/01/05 01:01:47;;;;;;;14.32;5.85;;;;;;;4.42;100.00;99133.00;8358081;28;20029;-62
2022/01/05 01:05:47;;;;;;;11.52;6.85;;;;;;;4.38;100.00;99134.22;8356449;28;20037;-62
2022/01/05 01:09:48;;;;;;;13.60;6.15;;;;;;;4.31;100.00;99131.25;8370493;28;20060;-62
2022/01/05 01:13:48;;;;;;;14.23;5.38;;;;;;;4.39;100.00;99149.31;8349342;28;20401;-62
2022/01/05 01:17:49;;;;;;;12.05;4.28;;;;;;;4.44;100.00;99141.69;8374758;28;20032;-62
2022/01/05 01:21:49;;;;;;;8.68;3.38;;;;;;;4.42;100.00;99138.34;8350693;28;20040;-62
2022/01/05 01:25:51;;;;;;;12.45;4.30;;;;;;;4.23;100.00;99148.94;8343535;28;20029;-62
2022/01/05 01:29:51;;;;;;;6.80;3.80;;;;;;;4.31;100.00;99157.16;8361695;28;20047;-62
2022/01/05 01:33:52;;;;;;;11.55;4.07;;;;;;;4.34;100.00;99143.50;8374435;28;20040;-62
2022/01/05 01:37:54;;;;;;;13.68;4.07;;;;;;;4.33;100.00;99149.84;8376690;28;20116;-62
2022/01/05 01:41:54;;;;;;;12.75;4.93;;;;;;;4.42;100.00;99157.06;8381734;28;20617;-62
2022/01/05 01:45:54;;;;;;;9.07;4.85;;;;;;;4.44;100.00;99163.09;8351462;28;20432;-62
2022/01/05 01:49:55;;;;;;;11.25;5.75;;;;;;;4.47;100.00;99160.16;8358071;28;20040;-62
2022/01/05 01:53:56;;;;;;;15.63;6.70;;;;;;;4.53;100.00;99163.16;8377832;28;20069;-63
2022/01/05 01:57:56;;;;;;;17.77;7.78;;;;;;;4.60;100.00;99166.13;8360498;28;20040;-62
2022/01/05 02:01:57;;;;;;;11.30;6.60;;;;;;;4.58;100.00;99173.44;8350674;28;20030;-62
2022/01/05 02:05:58;;;;;;;16.75;6.95;;;;;;;4.44;100.00;99163.09;8350017;28;20040;-62
2022/01/05 02:09:58;;;;;;;14.02;6.93;;;;;;;4.43;100.00;99156.06;8350957;28;20490;-62
2022/01/05 02:13:59;;;;;;;12.85;7.03;;;;;;;4.31;100.00;99166.03;8379326;28;20448;-62
2022/01/05 02:22:15;;;;;;;18.73;7.18;;;;;;;4.24;100.00;99182.75;8412048;27;20481;-62
2022/01/05 02:26:16;;;;;;;20.08;7.55;;;;;;;4.20;100.00;99184.00;8408754;27;20554;-62
2022/01/05 02:30:21;;;;;;;17.80;7.43;;;;;;;4.20;100.00;99186.69;8409077;27;20035;-62
2022/01/05 02:34:22;;;;;;;16.80;6.78;;;;;;;4.22;100.00;99198.06;8408271;27;20031;-62
2022/01/05 02:38:23;;;;;;;19.35;6.28;;;;;;;4.20;100.00;99197.38;8397728;27;20039;-62
2022/01/05 02:42:27;;;;;;;11.15;6.07;;;;;;;4.25;100.00;99200.47;8387379;28;20044;-62
2022/01/05 02:46:28;;;;;;;11.65;6.10;;;;;;;4.24;100.00;99209.50;8340846;28;20052;-62
2022/01/05 02:50:28;;;;;;;14.43;6.40;;;;;;;4.24;100.00;99220.19;8394296;28;20051;-62
2022/01/05 02:54:29;;;;;;;19.00;6.93;;;;;;;4.21;100.00;99228.47;8350888;28;20055;-62
2022/01/05 02:58:29;;;;;;;19.30;7.10;;;;;;;4.13;100.00;99247.00;8357686;28;20033;-62
2022/01/05 03:02:30;;;;;;;29.77;7.38;;;;;;;4.11;100.00;99251.66;8341731;28;20463;-62
2022/01/05 03:06:30;;;;;;;19.77;7.45;;;;;;;4.17;100.00;99251.13;8325937;28;20037;-62
2022/01/05 03:10:30;;;;;;;16.30;8.18;;;;;;;4.16;100.00;99249.41;8325002;28;20401;-62
2022/01/05 03:14:31;;;;;;;16.35;7.85;;;;;;;4.14;100.00;99262.09;8331536;28;20044;-62
2022/01/05 03:18:31;;;;;;;26.02;8.68;;;;;;;4.08;100.00;99258.09;8357997;28;20562;-62
2022/01/05 03:22:32;;;;;;;16.52;8.15;;;;;;;4.07;100.00;99269.75;8389561;28;20039;-62
2022/01/05 03:26:32;;;;;;;17.13;7.75;;;;;;;3.97;100.00;99261.66;8385514;28;20508;-62
2022/01/05 03:30:33;;;;;;;23.63;7.80;;;;;;;3.93;100.00;99260.25;8350911;28;20442;-62
2022/01/05 03:34:36;;;;;;;22.73;7.68;;;;;;;3.91;100.00;99272.06;8330269;28;20052;-62
2022/01/05 03:38:36;;;;;;;18.13;7.55;;;;;;;3.86;100.00;99275.13;8334394;28;20038;-62
2022/01/05 03:42:37;;;;;;;14.02;6.60;;;;;;;3.84;100.00;99282.41;8333110;28;20146;-62
2022/01/05 03:46:37;;;;;;;29.08;6.68;;;;;;;3.83;100.00;99301.22;8334220;28;20037;-62
2022/01/05 03:50:39;;;;;;;13.98;5.88;;;;;;;3.74;100.00;99297.50;8348774;28;20037;-62
2022/01/05 03:54:39;;;;;;;25.17;6.18;;;;;;;3.58;100.00;99302.44;8366100;28;20040;-62
2022/01/05 03:58:39;;;;;;;17.88;5.35;;;;;;;3.65;100.00;99314.31;8365685;28;20117;-62
2022/01/05 04:02:41;;;;;;;15.38;4.63;;;;;;;3.66;100.00;99312.50;8364857;28;20045;-62
2022/01/05 04:06:41;;;;;;;12.82;3.83;;;;;;;3.63;100.00;99321.59;8364940;28;20060;-62
2022/01/05 04:10:42;;;;;;;11.20;3.83;;;;;;;3.54;100.00;99329.53;8364305;28;20105;-62
2022/01/05 04:14:42;;;;;;;11.85;3.67;;;;;;;3.63;100.00;99337.63;8356359;28;20042;-62
2022/01/05 04:18:43;;;;;;;22.02;3.85;;;;;;;3.68;100.00;99343.44;8328906;28;20041;-62
2022/01/05 04:22:44;;;;;;;15.05;3.70;;;;;;;3.69;100.00;99353.16;8362996;28;20075;-62
2022/01/05 04:26:44;;;;;;;22.63;4.95;;;;;;;3.66;100.00;99364.09;8323727;28;20038;-62
2022/01/05 04:30:45;;;;;;;14.15;4.03;;;;;;;3.60;100.00;99375.28;8329258;28;20034;-62
2022/01/05 04:34:45;;;;;;;19.15;4.28;;;;;;;3.66;100.00;99374.78;8329763;28;20036;-62
2022/01/05 04:38:46;;;;;;;11.35;3.70;;;;;;;3.66;100.00;99369.44;8330134;28;20477;-62
2022/01/05 04:42:46;;;;;;;16.88;4.78;;;;;;;3.70;100.00;99376.25;8328488;28;20037;-62
2022/01/05 04:46:47;;;;;;;24.63;5.10;;;;;;;3.63;100.00;99380.38;8330296;28;20039;-62
2022/01/05 04:50:47;;;;;;;20.75;4.45;;;;;;;3.63;100.00;99385.72;8319270;28;20029;-62
2022/01/05 04:54:47;;;;;;;12.73;3.67;;;;;;;3.64;99.64;99391.94;8297388;28;20041;-62
2022/01/05 04:58:48;;;;;;;12.75;3.45;;;;;;;3.68;98.80;99388.88;8298269;28;20037;-62
2022/01/05 05:02:48;;;;;;;18.17;3.53;;;;;;;3.67;98.14;99383.66;8297204;28;20045;-62
2022/01/05 05:06:50;;;;;;;22.45;3.08;;;;;;;3.64;97.34;99398.13;8324257;28;20053;-62
2022/01/05 05:10:50;;;;;;;11.35;3.22;;;;;;;3.63;96.94;99407.09;8329483;28;20030;-62
2022/01/05 05:14:50;;;;;;;12.82;3.63;;;;;;;3.60;97.02;99407.34;8315387;28;20041;-62
2022/01/05 05:18:51;;;;;;;19.40;3.13;;;;;;;3.52;97.14;99404.47;8318666;28;20125;-62
2022/01/05 05:22:51;;;;;;;14.68;3.17;;;;;;;3.50;96.68;99410.88;8322514;28;20175;-62
2022/01/05 05:26:52;;;;;;;19.67;3.05;;;;;;;3.52;95.54;99412.47;8308369;28;20034;-62
2022/01/05 05:30:52;;;;;;;16.08;2.90;;;;;;;3.47;95.68;99400.44;8327277;28;20033;-62
2022/01/05 05:34:52;;;;;;;20.17;3.47;;;;;;;3.43;96.43;99412.34;8326681;28;20033;-62
2022/01/05 05:38:53;;;;;;;16.02;2.83;;;;;;;3.47;96.06;99409.31;8324203;28;20072;-62
2022/01/05 05:42:53;;;;;;;16.38;3.33;;;;;;;3.52;95.85;99419.63;8305969;28;20505;-62
2022/01/05 05:46:54;;;;;;;14.50;3.42;;;;;;;3.54;94.91;99415.84;8318620;28;20045;-62
2022/01/05 05:50:54;;;;;;;16.63;4.40;;;;;;;3.44;95.17;99412.22;8304427;28;20046;-62
2022/01/05 05:54:55;;;;;;;19.33;3.55;;;;;;;3.53;94.59;99411.50;8315756;28;20037;-62
2022/01/05 05:58:55;;;;;;;12.90;2.63;;;;;;;3.53;93.90;99400.81;8309267;28;20068;-62
2022/01/05 06:02:57;;;;;;;24.48;4.03;;;;;;;3.48;94.14;99413.66;8311925;28;20053;-62
2022/01/05 06:06:57;;;;;;;15.10;3.92;;;;;;;3.44;94.47;99420.25;8312998;28;20124;-62
2022/01/05 06:10:58;;;;;;;15.45;2.90;;;;;;;3.46;94.26;99415.63;8318822;28;20848;-62
2022/01/05 06:14:58;;;;;;;14.82;2.45;;;;;;;3.48;94.06;99427.03;8311065;28;20052;-62
2022/01/05 06:18:59;;;;;;;16.17;2.35;;;;;;;3.51;94.04;99418.78;8343167;28;20045;-62
2022/01/05 06:22:59;;;;;;;15.30;3.10;;;;;;;3.61;93.50;99427.78;8356699;28;20344;-62
2022/01/05 06:27:00;;;;;;;18.33;2.70;;;;;;;3.64;93.64;99421.31;8353233;28;20445;-62
2022/01/05 06:31:01;;;;;;;16.55;3.00;;;;;;;3.65;92.97;99431.88;8348937;28;20496;-62
2022/01/05 06:35:03;;;;;;;16.85;2.85;;;;;;;3.59;93.23;99443.06;8332977;28;20048;-62
2022/01/05 06:39:04;;;;;;;24.70;3.17;;;;;;;3.51;94.24;99450.81;8344831;28;20045;-62
2022/01/05 06:43:04;;;;;;;17.55;3.17;;;;;;;3.58;94.09;99457.41;8350545;28;20519;-62
2022/01/05 06:47:05;;;;;;;10.73;3.20;;;;;;;3.65;94.80;99458.59;8351400;28;20127;-62
2022/01/05 06:51:05;;;;;;;15.18;2.97;;;;;;;3.76;94.27;99468.44;8362963;28;20038;-62
2022/01/05 06:55:07;;;;;;;17.83;3.55;;;;;;;3.71;94.32;99462.59;8347174;28;20025;-62
2022/01/05 06:59:08;;;;;;;26.42;4.72;;;;;;;3.65;94.28;99471.97;8357342;28;20041;-62
2022/01/05 07:03:10;;;;;;;20.50;4.35;;;;;;;3.67;94.69;99479.84;8354720;28;20044;-62
2022/01/05 07:07:10;;;;;;;22.05;5.40;;;;;;;3.61;95.18;99483.03;8355576;28;20374;-62
2022/01/05 07:11:11;;;;;;;21.27;5.05;;;;;;;3.71;94.93;99500.88;8354874;28;20045;-62
2022/01/05 07:15:12;;;;;;;17.42;4.40;;;;;;;3.78;94.79;99495.88;8353970;28;20120;-62
2022/01/05 07:19:13;;;;;;;15.77;4.30;;;;;;;3.86;95.18;99493.44;8359406;28;20049;-62
2022/01/05 07:23:14;;;;;;;16.33;4.80;;;;;;;4.00;94.80;99506.56;8358642;28;20047;-62
2022/01/05 07:27:14;;;;;;;23.33;5.32;;;;;;;4.18;93.72;99510.41;8357756;28;20037;-62
2022/01/05 07:31:14;;;;;;;20.05;4.35;;;;;;;4.25;93.11;99521.44;8350089;28;20148;-62
2022/01/05 07:35:15;;;;;;;16.63;4.22;;;;;;;4.30;93.26;99525.41;8346282;28;20098;-62
2022/01/05 07:39:15;;;;;;;29.98;5.35;;;;;;;4.37;92.73;99523.09;8346132;28;20045;-62
2022/01/05 07:43:16;;;;;;;18.77;5.13;;;;;;;4.47;92.23;99521.38;8354218;28;20036;-62
2022/01/05 07:47:16;;;;;;;18.95;4.50;;;;;;;4.53;91.97;99527.06;8352024;28;20099;-62
2022/01/05 07:51:17;;;;;;;18.73;5.18;;;;;;;4.54;91.69;99527.94;8350976;28;20044;-62
2022/01/05 07:55:17;;;;;;;15.68;4.30;;;;;;;4.59;91.54;99542.63;8353920;28;20040;-62
2022/01/05 07:59:18;;;;;;;14.00;4.50;;;;;;;4.57;91.70;99539.22;8349493;28;20045;-62
2022/01/05 08:03:18;;;;;;;25.38;5.10;;;;;;;4.57;91.87;99541.06;8341273;28;20043;-62
2022/01/05 08:07:18;;;;;;;20.40;4.90;;;;;;;4.56;91.62;99553.56;8333603;28;20045;-63
2022/01/05 08:11:19;;;;;;;20.10;4.75;;;;;;;4.57;91.76;99543.72;8349644;28;20394;-63
2022/01/05 08:15:19;;;;;;;17.73;5.50;;;;;;;4.53;91.59;99548.47;8356524;28;20578;-63
2022/01/05 08:19:20;;;;;;;21.50;4.40;;;;;;;4.51;91.37;99550.41;8351229;28;20044;-63
2022/01/05 08:23:22;;;;;;;13.85;5.05;;;;;;;4.52;91.30;99553.97;8354649;28;20054;-63
2022/01/05 08:27:22;;;;;;;17.52;4.68;;;;;;;4.57;91.25;99549.09;8350171;28;20493;-63
2022/01/05 08:31:22;;;;;;;14.55;4.18;;;;;;;4.59;90.82;99547.13;8342963;28;20491;-63
2022/01/05 08:35:23;;;;;;;18.20;4.43;;;;;;;4.75;90.17;99551.06;8342949;28;20447;-63
2022/01/05 08:39:24;;;;;;;17.02;4.15;;;;;;;4.96;89.81;99564.47;8351757;28;20548;-63
2022/01/05 08:43:24;;;;;;;19.90;4.57;;;;;;;5.00;89.43;99568.63;8351520;28;20444;-63
2022/01/05 08:47:24;;;;;;;16.92;3.85;;;;;;;5.02;88.88;99574.69;8343842;28;20092;-63
2022/01/05 08:51:25;;;;;;;16.90;3.97;;;;;;;5.02;89.05;99583.56;8362001;28;20048;-63
2022/01/05 08:55:31;;;;;;;19.55;3.85;;;;;;;5.02;89.70;99588.06;8336241;28;20041;-63
2022/01/05 08:59:32;;;;;;;13.23;4.65;;;;;;;5.02;89.53;99598.78;8346581;28;20045;-63
2022/01/05 09:03:32;;;;;;;10.35;4.25;;;;;;;5.08;89.79;99614.34;8351089;28;20033;-63
2022/01/05 09:07:33;;;;;;;14.05;3.47;;;;;;;5.15;89.19;99612.84;8352511;28;20049;-63
2022/01/05 09:11:34;;;;;;;13.80;3.70;;;;;;;5.13;89.16;99612.16;8353417;28;20127;-63
2022/01/05 09:15:35;;;;;;;17.80;3.75;;;;;;;5.14;89.18;99616.50;8357730;28;20041;-63
2022/01/05 09:19:36;;;;;;;19.00;4.45;;;;;;;5.13;89.68;99617.50;8350440;28;20045;-63
2022/01/05 09:23:37;;;;;;;19.80;3.22;;;;;;;5.12;90.01;99626.53;8353904;28;20051;-63
2022/01/05 09:27:38;;;;;;;19.00;4.10;;;;;;;5.14;90.09;99613.84;8342156;28;20135;-63
2022/01/05 09:31:39;;;;;;;14.25;4.00;;;;;;;5.16;89.69;99606.53;8341721;28;20056;-63
2022/01/05 09:35:40;;;;;;;15.10;4.22;;;;;;;5.26;89.56;99612.81;8353558;28;20041;-63
2022/01/05 09:44:07;;;;;;;10.63;3.65;;;;;;;5.35;89.53;99638.81;8354788;28;20037;-63
2022/01/05 09:48:47;;;;;;;11.23;3.90;;;;;;;5.41;89.02;99622.22;8346587;28;20037;-63
2022/01/05 09:52:48;;;;;;;12.88;3.70;;;;;;;5.57;88.40;99625.28;8357549;28;20400;-63
2022/01/05 09:56:50;;;;;;;15.75;4.53;;;;;;;5.84;87.10;99639.06;8355899;28;20036;-63
2022/01/05 10:00:52;;;;;;;11.10;3.53;;;;;;;6.02;87.21;99645.50;8353500;28;20256;-63
2022/01/05 10:04:52;;;;;;;13.00;3.60;;;;;;;5.96;86.71;99646.03;8354224;28;20480;-63
2022/01/05 10:08:53;;;;;;;20.88;3.95;;;;;;;5.92;86.97;99650.81;8347667;28;20424;-63
2022/01/05 10:12:54;;;;;;;11.88;3.42;;;;;;;5.88;86.69;99646.69;8352610;28;20087;-63
2022/01/05 10:17:13;;;;;;;17.17;4.55;;;;;;;5.86;87.10;99655.88;8353874;28;20606;-63
2022/01/05 10:21:14;;;;;;;16.65;3.95;;;;;;;5.89;86.64;99647.56;8366940;28;20099;-63
2022/01/05 10:25:20;;;;;;;13.10;3.17;;;;;;;5.94;87.44;99653.34;8354729;28;20369;-63
2022/01/05 10:29:20;;;;;;;16.80;3.58;;;;;;;5.96;87.82;99664.81;8355991;28;20033;-63
2022/01/05 10:33:28;;;;;;;15.80;3.47;;;;;;;5.96;87.41;99656.78;8355433;28;20100;-63
2022/01/05 10:37:29;;;;;;;14.38;3.75;;;;;;;6.00;87.00;99674.28;8356226;28;20416;-63
2022/01/05 10:41:31;;;;;;;11.73;3.40;;;;;;;6.08;87.07;99666.44;8356886;28;20427;-63
2022/01/05 10:45:42;;;;;;;13.98;4.32;;;;;;;6.00;87.37;99674.28;8358904;28;20056;-63
2022/01/05 10:49:44;;;;;;;12.45;3.35;;;;;;;6.03;87.64;99674.03;8361803;28;20555;-63
2022/01/05 10:53:45;;;;;;;15.48;4.45;;;;;;;6.19;87.77;99669.03;8360596;28;20036;-63
2022/01/05 10:58:07;;;;;;;14.50;3.30;;;;;;;6.95;86.11;99663.91;8358042;28;20036;-63
2022/01/05 11:02:30;;;;;;;23.20;5.38;;;;;;;8.04;81.31;99660.78;8351819;28;20079;-63
2022/01/05 11:06:30;;;;;;;16.27;3.38;;;;;;;8.62;78.51;99655.19;8358812;28;20037;-63
2022/01/05 11:10:31;;;;;;;13.18;3.30;;;;;;;10.05;73.37;99673.81;8347584;28;20055;-63
2022/01/05 11:14:34;;;;;;;17.83;3.92;;;;;;;10.58;70.69;99679.91;8347285;28;20053;-63
2022/01/05 11:18:35;;;;;;;7.95;3.10;;;;;;;9.57;72.48;99681.50;8344449;28;20064;-63
2022/01/05 11:22:36;;;;;;;16.25;3.72;;;;;;;8.78;75.95;99685.06;8341283;28;20041;-63
2022/01/05 11:26:37;;;;;;;12.98;3.53;;;;;;;7.87;80.41;99680.34;8344448;28;20436;-63
2022/01/05 11:30:38;;;;;;;16.27;3.75;;;;;;;7.35;82.85;99675.41;8351857;28;21036;-63
2022/01/05 11:34:39;;;;;;;17.05;4.30;;;;;;;7.19;83.52;99669.75;8347085;28;20033;-63
2022/01/05 11:38:40;;;;;;;14.02;3.88;;;;;;;8.15;79.97;99653.50;8354541;28;20057;-63
2022/01/05 11:42:41;;;;;;;12.77;4.20;;;;;;;8.56;77.97;99655.78;8359240;28;20091;-63
2022/01/05 11:46:44;;;;;;;16.35;5.32;;;;;;;8.84;76.53;99662.91;8357242;28;20053;-63
2022/01/05 11:50:56;;;;;;;15.77;4.28;;;;;;;9.53;74.90;99645.06;8361654;28;20120;-63
2022/01/05 11:55:06;;;;;;;12.95;4.95;;;;;;;10.40;71.98;99654.81;8347660;28;20056;-63
2022/01/05 11:59:19;;;;;;;10.07;3.78;;;;;;;10.25;71.49;99647.50;8334542;28;20037;-63
2022/01/05 12:03:46;;;;;;;12.38;2.88;;;;;;;10.58;70.56;99658.31;8350516;28;20044;-63
2022/01/05 12:07:47;;;;;;;19.05;3.60;;;;;;;9.81;72.90;99663.69;8355521;28;20045;-63
2022/01/05 12:11:48;;;;;;;13.85;3.63;;;;;;;8.15;78.07;99677.75;8357015;28;20045;-63
2022/01/05 12:15:56;;;;;;;19.52;4.43;;;;;;;7.56;82.14;99670.75;8352171;28;20052;-63
2022/01/05 12:20:01;;;;;;;14.20;4.20;;;;;;;7.31;83.01;99674.00;8341912;28;20128;-63
2022/01/05 12:24:02;;;;;;;23.15;4.22;;;;;;;7.36;83.39;99661.00;8356030;28;20049;-63
2022/01/05 12:28:03;;;;;;;12.52;4.85;;;;;;;7.43;84.25;99664.81;8353483;28;20043;-63
2022/01/05 12:32:04;;;;;;;14.75;4.05;;;;;;;7.36;84.37;99658.31;8354664;28;20628;-63
2022/01/05 12:36:04;;;;;;;12.82;4.22;;;;;;;7.58;82.79;99668.78;8351204;28;20029;-63
2022/01/05 12:40:42;;;;;;;23.67;4.40;;;;;;;7.50;83.82;99690.13;8357481;28;20029;-63
2022/01/05 12:44:43;;;;;;;13.45;3.70;;;;;;;7.55;83.51;99689.72;8359168;28;20045;-63
2022/01/05 12:52:56;;;;;;;19.60;4.68;;;;;;;7.33;85.67;99696.25;8406299;27;20495;-63
2022/01/05 12:57:03;;;;;;;17.30;4.80;;;;;;;7.22;86.36;99708.94;8369808;28;20033;-63
2022/01/05 13:01:04;;;;;;;16.90;4.35;;;;;;;7.14;86.67;99709.63;8370534;28;20326;-63
2022/01/05 13:05:06;;;;;;;21.45;5.03;;;;;;;7.14;86.49;99706.94;8373699;27;20060;-63
2022/01/05 13:09:10;;;;;;;18.42;4.65;;;;;;;7.08;86.79;99702.13;8375740;28;20072;-63
2022/01/05 13:13:10;;;;;;;16.75;4.85;;;;;;;7.22;87.39;99723.22;8372517;27;20037;-63
2022/01/05 13:17:19;;;;;;;18.75;6.03;;;;;;;7.53;85.64;99719.44;8356794;28;20620;-63
2022/01/05 13:21:20;;;;;;;16.98;4.47;;;;;;;7.50;85.19;99730.47;8366478;28;20033;-63
2022/01/05 13:25:22;;;;;;;22.70;5.65;;;;;;;7.32;85.48;99720.56;8361953;28;20345;-63
2022/01/05 13:29:23;;;;;;;14.63;5.43;;;;;;;7.21;86.66;99740.34;8378355;28;20033;-63
2022/01/05 13:33:23;;;;;;;26.50;4.97;;;;;;;7.17;86.31;99738.91;8369481;28;20076;-63
2022/01/05 13:37:28;;;;;;;15.90;4.85;;;;;;;7.16;86.99;99723.78;8364033;28;20036;-63
2022/01/05 13:41:55;;;;;;;16.70;4.63;;;;;;;7.12;87.97;99749.25;8369219;28;20098;-63
2022/01/05 13:45:56;;;;;;;14.88;4.68;;;;;;;7.21;86.92;99740.34;8364962;28;20032;-63
2022/01/05 13:50:20;;;;;;;20.42;4.03;;;;;;;7.17;86.97;99754.22;8359292;28;20092;-63
2022/01/05 13:54:21;;;;;;;;;;;;;;;7.17;86.64;99749.66;8356940;28;20170;-63
2022/01/05 13:58:25;;;;;;;16.88;3.70;;;;;;;7.27;86.94;99766.69;8385784;28;19959;-63
2022/01/05 14:02:27;;;;;;;20.23;3.58;;;;;;;7.26;86.12;99753.38;8341422;28;20037;-63
2022/01/05 14:06:31;;;;;;;17.98;3.60;;;;;;;7.18;86.47;99767.50;8348797;28;20033;-63
2022/01/05 14:10:33;;;;;;;15.87;4.10;;;;;;;7.17;86.82;99776.53;8335034;28;20045;-63
2022/01/05 14:14:34;;;;;;;14.07;3.42;;;;;;;7.12;86.69;99765.38;8349259;28;20048;-63
2022/01/05 14:18:44;;;;;;;17.17;3.08;;;;;;;7.12;86.34;99765.38;8343118;28;20041;-64
2022/01/05 14:22:57;;;;;;;19.17;3.92;;;;;;;7.16;86.17;99769.47;8346820;28;20064;-63
2022/01/05 14:26:57;;;;;;;12.95;3.83;;;;;;;7.12;86.27;99761.81;8347425;28;20063;-63
2022/01/05 14:31:02;;;;;;;20.65;3.60;;;;;;;7.02;87.77;99772.53;8342977;28;20057;-63
2022/01/05 14:35:12;;;;;;;17.13;3.75;;;;;;;6.98;87.37;99771.13;8345161;28;20528;-63
2022/01/05 14:39:17;;;;;;;16.45;4.45;;;;;;;6.97;87.40;99782.00;8333517;28;20064;-63
2022/01/05 14:43:18;;;;;;;24.92;4.43;;;;;;;7.04;86.91;99791.19;8334597;28;20364;-63
2022/01/05 14:47:24;;;;;;;19.13;5.57;;;;;;;7.09;87.06;99794.34;8344618;28;20037;-63
2022/01/05 14:51:25;;;;;;;16.98;3.88;;;;;;;7.12;87.43;99812.88;8347584;28;20037;-63
2022/01/05 14:55:25;;;;;;;15.25;3.55;;;;;;;7.13;88.19;99810.06;8367395;28;20512;-64
2022/01/05 14:59:26;;;;;;;11.95;3.38;;;;;;;7.07;88.20;99824.03;8380615;28;20321;-64
2022/01/05 15:03:26;;;;;;;17.35;3.40;;;;;;;7.04;88.11;99818.06;8363142;28;20120;-64
2022/01/05 15:07:27;;;;;;;19.67;5.10;;;;;;;7.06;88.58;99822.34;8372844;28;20033;-64
2022/01/05 15:11:27;;;;;;;17.20;4.35;;;;;;;7.03;88.64;99825.31;8373920;28;20090;-63
2022/01/05 15:15:27;;;;;;;13.77;4.88;;;;;;;7.00;89.94;99841.69;8374821;28;20040;-63
2022/01/05 15:19:28;;;;;;;14.18;4.07;;;;;;;7.03;90.54;99849.50;8378852;28;20040;-63
2022/01/05 15:23:28;;;;;;;9.80;3.10;;;;;;;7.06;88.97;99848.38;8377371;28;20090;-63
2022/01/05 15:27:28;;;;;;;20.70;3.88;;;;;;;7.07;90.38;99871.56;8372779;28;20044;-63
2022/01/05 15:31:29;;;;;;;18.77;4.60;;;;;;;7.02;91.05;99868.44;8369740;28;20048;-63
2022/01/05 15:35:30;;;;;;;22.02;4.82;;;;;;;6.97;92.89;99882.28;8369330;28;20668;-63
2022/01/05 15:39:31;;;;;;;16.13;4.78;;;;;;;6.87;93.85;99892.13;8373446;28;20507;-63
2022/01/05 15:43:31;;;;;;;18.77;5.40;;;;;;;6.80;94.06;99896.31;8360294;28;20110;-63
2022/01/05 15:47:32;;;;;;;21.83;6.93;;;;;;;6.81;94.94;99907.91;8362989;28;20041;-63
2022/01/05 15:51:32;;;;;;;28.42;8.27;;;;;;;6.81;94.71;99908.78;8371161;28;20056;-63
2022/01/05 15:55:42;;;;;;;17.48;5.13;;;;;;;6.86;93.71;99906.53;8372654;28;20047;-63
2022/01/05 16:04:07;;;;;;;16.13;5.15;;;;;;;6.89;94.84;99925.06;8377893;28;20414;-63
2022/01/05 16:08:09;;;;;;;22.13;5.22;;;;;;;6.75;94.69;99925.41;8384909;28;20031;-63
2022/01/05 16:12:10;;;;;;;16.33;5.10;;;;;;;6.71;95.52;99940.06;8392282;28;20405;-63
2022/01/05 16:16:11;;;;;;;19.48;5.45;;;;;;;6.62;96.68;99946.22;8381510;28;20098;-63
2022/01/05 16:20:13;;;;;;;26.33;5.63;;;;;;;6.56;98.15;99949.41;8383847;28;20075;-63
2022/01/05 16:24:15;;;;;;;19.75;5.20;;;;;;;6.52;98.37;99950.66;8368706;28;20099;-63
2022/01/05 16:28:16;;;;;;;19.70;4.70;;;;;;;6.51;98.59;99957.03;8360478;28;20078;-63
2022/01/05 16:32:17;;;;;;;21.83;4.60;;;;;;;6.48;100.00;99968.03;8374718;28;20040;-63
2022/01/05 16:36:17;;;;;;;16.67;4.60;;;;;;;6.48;100.00;99968.03;8373122;28;20461;-63
2022/01/05 16:40:17;;;;;;;19.65;6.18;;;;;;;6.46;100.00;99971.81;8387944;28;20113;-63
2022/01/05 16:44:18;;;;;;;21.33;5.78;;;;;;;6.46;100.00;99983.41;8362908;28;20378;-63
2022/01/05 16:48:18;;;;;;;32.03;9.75;;;;;;;6.40;100.00;99989.28;8362622;28;20037;-63
2022/01/05 16:52:19;;;;;;;20.02;5.60;;;;;;;6.36;100.00;100000.41;8375471;28;20459;-63
2022/01/05 16:56:30;;;;;;;14.43;4.63;;;;;;;6.34;100.00;100000.53;8368541;28;20036;-63
2022/01/05 17:00:35;;;;;;;24.98;7.22;;;;;;;6.35;100.00;100002.25;8363929;28;20127;-63
2022/01/05 17:04:37;;;;;;;12.35;5.40;;;;;;;6.39;100.00;100013.56;8367050;28;20036;-63
2022/01/05 17:08:39;;;;;;;17.63;5.07;;;;;;;6.39;100.00;100019.78;8359198;28;20078;-63
2022/01/05 17:12:39;;;;;;;25.00;6.20;;;;;;;6.39;100.00;100018.94;8357333;28;20045;-63
2022/01/05 17:16:40;;;;;;;17.48;5.00;;;;;;;6.40;100.00;100010.75;8363379;28;20504;-63
2022/01/05 17:20:41;;;;;;;14.07;4.88;;;;;;;6.47;100.00;100028.09;8388483;28;20029;-63
2022/01/05 17:24:41;;;;;;;20.83;4.75;;;;;;;6.45;100.00;100038.09;8363952;28;20047;-63
2022/01/05 17:28:42;;;;;;;19.63;5.30;;;;;;;6.46;100.00;100052.38;8357877;28;20064;-63
2022/01/05 17:32:43;;;;;;;23.23;5.30;;;;;;;6.48;100.00;100056.63;8364783;28;20407;-63
2022/01/05 17:36:43;;;;;;;26.42;5.20;;;;;;;6.51;100.00;100059.06;8367384;28;20400;-63
2022/01/05 17:40:44;;;;;;;25.95;5.85;;;;;;;6.50;100.00;100068.09;8380177;28;20040;-63
2022/01/05 17:44:44;;;;;;;14.13;6.00;;;;;;;6.44;100.00;100065.91;8363552;28;20033;-63
2022/01/05 17:48:48;;;;;;;21.40;5.10;;;;;;;6.37;100.00;100074.59;8365868;28;20033;-63
2022/01/05 17:52:48;;;;;;;20.03;6.67;;;;;;;6.38;100.00;100077.16;8379430;28;20048;-63
2022/01/05 17:56:49;;;;;;;13.23;4.43;;;;;;;6.41;100.00;100081.41;8377138;28;20412;-63
2022/01/05 18:00:49;;;;;;;26.70;5.95;;;;;;;6.47;100.00;100089.84;8364395;28;20033;-63
2022/01/05 18:04:50;;;;;;;20.50;4.85;;;;;;;6.41;100.00;100098.38;8390012;28;20039;-63
2022/01/05 18:08:50;;;;;;;14.35;4.53;;;;;;;6.35;100.00;100092.66;8376230;28;20231;-63
2022/01/05 18:12:52;;;;;;;17.90;4.82;;;;;;;6.31;100.00;100101.94;8378694;28;20416;-64
2022/01/05 18:16:54;;;;;;;15.05;5.25;;;;;;;6.30;100.00;100105.56;8366098;28;20047;-63
2022/01/05 18:20:54;;;;;;;24.77;6.63;;;;;;;6.32;100.00;100104.50;8360995;28;20040;-63
2022/01/05 18:24:55;;;;;;;17.98;5.43;;;;;;;6.39;100.00;100113.75;8370036;28;20052;-63
2022/01/05 18:28:56;;;;;;;17.65;5.60;;;;;;;6.46;100.00;100123.00;8367461;28;20344;-63
2022/01/05 18:32:57;;;;;;;24.80;6.38;;;;;;;6.50;100.00;100129.84;8359095;28;20124;-63
2022/01/05 18:36:59;;;;;;;21.27;6.28;;;;;;;6.51;100.00;100144.97;8367824;28;20040;-63
2022/01/05 18:40:59;;;;;;;25.98;6.57;;;;;;;6.50;100.00;100150.47;8369434;28;20040;-63
2022/01/05 18:45:00;;;;;;;27.88;6.28;;;;;;;6.57;100.00;100152.53;8360402;28;20043;-63
2022/01/05 18:49:01;;;;;;;17.50;5.82;;;;;;;6.55;100.00;100159.84;8363191;28;20040;-63
2022/01/05 18:53:02;;;;;;;18.25;6.78;;;;;;;6.55;100.00;100148.25;8375646;28;20769;-63
2022/01/05 18:57:02;;;;;;;20.77;5.55;;;;;;;6.56;100.00;100153.50;8359123;28;20040;-63
2022/01/05 19:01:03;;;;;;;13.95;5.15;;;;;;;6.58;100.00;100158.75;8417263;28;20040;-63
2022/01/05 19:05:05;;;;;;;10.30;5.63;;;;;;;6.49;100.00;100160.34;8435574;28;20086;-63
2022/01/05 19:09:06;;;;;;;13.82;6.50;;;;;;;6.47;100.00;100159.66;8440426;28;20028;-63